Observation data for Hart on 05/26/2019      Previous  Date  Next       Current Mesonet Observations  Soil Data  Daily Summary Page  Observations in Plain Language
KHRS 260500Z 16006KT 18/18 A2997 RMK A01 T01840175  RH  096%=      5-min Rain = 0
KHRS 260505Z 16005KT 18/17 A2998 RMK A01 T01830174  RH  097%=      5-min Rain = 0
KHRS 260510Z 16006KT 18/17 A2998 RMK A01 T01830174  RH  097%=      5-min Rain = 0
KHRS 260515Z 16007KT 18/18 A2998 RMK A01 T01830175  RH  097%=      5-min Rain = 0
KHRS 260520Z 16007KT 18/18 A2998 RMK A01 T01830175  RH  097%=      5-min Rain = 0
KHRS 260525Z 17004G9KT 18/17 A2998 RMK A01 T01830174  RH  097%=      5-min Rain = 0
KHRS 260530Z 17004KT 18/17 A2998 RMK A01 T01810172  RH  097%=      5-min Rain = 0
KHRS 260535Z 17004KT 18/17 A2998 RMK A01 T01810172  RH  097%=      5-min Rain = 0
KHRS 260540Z 17004KT 18/17 A2998 RMK A01 T01800171  RH  097%=      5-min Rain = 0
KHRS 260545Z 17005KT 18/17 A2998 RMK A01 T01790171  RH  097%=      5-min Rain = 0
KHRS 260550Z 17006KT 18/17 A2998 RMK A01 T01800172  RH  097%=      5-min Rain = 0
KHRS 260555Z 17005KT 18/17 A2998 RMK A01 T01800172  RH  097%=      5-min Rain = 0
KHRS 260600Z 17005KT 18/17 A2998 RMK A01 T01800173  RH  097%=      5-min Rain = 0
KHRS 260605Z 17006KT 18/17 A2998 RMK A01 T01810173  RH  097%=      5-min Rain = 0
KHRS 260610Z 17007KT 18/17 A2998 RMK A01 T01820174  RH  098%=      5-min Rain = 0
KHRS 260615Z 17007G12KT 18/18 A2998 RMK A01 T01830176  RH  097%=      5-min Rain = 0
KHRS 260620Z 17008G14KT 18/18 A2997 RMK A01 T01840176  RH  097%=      5-min Rain = 0
KHRS 260625Z 17008KT 19/18 A2997 RMK A01 T01850176  RH  097%=      5-min Rain = 0
KHRS 260630Z 18008G13KT 19/18 A2997 RMK A01 T01860176  RH  096%=      5-min Rain = 0
KHRS 260635Z 18008G14KT 19/18 A2998 RMK A01 T01860175  RH  096%=      5-min Rain = 0
KHRS 260640Z 18007KT 19/18 A2998 RMK A01 T01860175  RH  095%=      5-min Rain = 0
KHRS 260645Z 18007KT 19/17 A2997 RMK A01 T01860174  RH  095%=      5-min Rain = 0
KHRS 260650Z 18007KT 19/17 A2998 RMK A01 T01860174  RH  095%=      5-min Rain = 0
KHRS 260655Z 18007KT 19/17 A2998 RMK A01 T01860173  RH  094%=      5-min Rain = 0
KHRS 260700Z 18007KT 19/17 A2998 RMK A01 T01850172  RH  094%=      5-min Rain = 0
KHRS 260705Z 18007KT 19/17 A2998 RMK A01 T01850172  RH  094%=      5-min Rain = 0
KHRS 260710Z 18006G11KT 18/17 A2998 RMK A01 T01840171  RH  094%=      5-min Rain = 0
KHRS 260715Z 17006KT 18/17 A2998 RMK A01 T01840171  RH  094%=      5-min Rain = 0
KHRS 260720Z 17005KT 18/17 A2998 RMK A01 T01830169  RH  094%=      5-min Rain = 0
KHRS 260725Z 16005KT 18/17 A2998 RMK A01 T01820168  RH  094%=      5-min Rain = 0
KHRS 260730Z 16004KT 18/17 A2998 RMK A01 T01800167  RH  094%=      5-min Rain = 0
KHRS 260735Z 15005KT 18/17 A2998 RMK A01 T01780165  RH  094%=      5-min Rain = 0
KHRS 260740Z 15004KT 18/16 A2999 RMK A01 T01770164  RH  095%=      5-min Rain = 0
KHRS 260745Z 15004KT 18/16 A2999 RMK A01 T01750164  RH  095%=      5-min Rain = 0
KHRS 260750Z 15004KT 18/16 A2999 RMK A01 T01750163  RH  095%=      5-min Rain = 0
KHRS 260755Z 15003KT 17/16 A2999 RMK A01 T01740163  RH  095%=      5-min Rain = 0
KHRS 260800Z 17002KT 17/16 A2999 RMK A01 T01730163  RH  096%=      5-min Rain = 0
KHRS 260805Z 17002KT 17/16 A2998 RMK A01 T01720162  RH  096%=      5-min Rain = 0
KHRS 260810Z 17002KT 17/16 A2999 RMK A01 T01720162  RH  096%=      5-min Rain = 0.01
KHRS 260815Z 18003KT 17/16 A2999 RMK A01 T01720163  RH  096%=      5-min Rain = 0
KHRS 260820Z 18003KT 17/16 A2998 RMK A01 T01710161  RH  096%=      5-min Rain = 0
KHRS 260825Z 17003KT 17/16 A2998 RMK A01 T01720163  RH  097%=      5-min Rain = 0
KHRS 260830Z 17004KT 17/16 A2998 RMK A01 T01710162  RH  097%=      5-min Rain = 0
KHRS 260835Z 16004KT 17/16 A2998 RMK A01 T01690160  RH  097%=      5-min Rain = 0
KHRS 260840Z 15005KT 17/16 A2998 RMK A01 T01660156  RH  096%=      5-min Rain = 0
KHRS 260845Z 14005KT 16/15 A2998 RMK A01 T01610152  RH  096%=      5-min Rain = 0
KHRS 260850Z 14005KT 16/15 A2998 RMK A01 T01590151  RH  097%=      5-min Rain = 0
KHRS 260855Z 14005KT 16/15 A2998 RMK A01 T01570149  RH  097%=      5-min Rain = 0
KHRS 260900Z 14005KT 16/15 A2999 RMK A01 T01570150  RH  097%=      5-min Rain = 0
KHRS 260905Z 15004KT 16/15 A2999 RMK A01 T01590152  RH  098%=      5-min Rain = 0
KHRS 260910Z 14004KT 16/15 A2999 RMK A01 T01600153  RH  098%=      5-min Rain = 0
KHRS 260915Z 13003KT 16/15 A2999 RMK A01 T01580151  RH  098%=      5-min Rain = 0
KHRS 260920Z 13003KT 16/15 A2999 RMK A01 T01580151  RH  098%=      5-min Rain = 0
KHRS 260925Z 13003KT 16/15 A2999 RMK A01 T01580152  RH  098%=      5-min Rain = 0
KHRS 260930Z 13003KT 16/15 A2999 RMK A01 T01590152  RH  098%=      5-min Rain = 0
KHRS 260935Z 13003KT 16/15 A2999 RMK A01 T01580152  RH  098%=      5-min Rain = 0
KHRS 260940Z 13003KT 16/15 A2999 RMK A01 T01580152  RH  098%=      5-min Rain = 0
KHRS 260945Z 13002KT 15/15 A30 RMK A01 T01540148  RH  098%=      5-min Rain = 0
KHRS 260950Z 13002KT 15/15 A2999 RMK A01 T01530147  RH  098%=      5-min Rain = 0
KHRS 260955Z 12003KT 15/15 A2999 RMK A01 T01510145  RH  098%=      5-min Rain = 0
KHRS 261000Z 12004KT 15/14 A2999 RMK A01 T01490143  RH  098%=      5-min Rain = 0
KHRS 261005Z 12004KT 15/14 A2999 RMK A01 T01460140  RH  098%=      5-min Rain = 0
KHRS 261010Z 12004KT 14/14 A2999 RMK A01 T01440138  RH  098%=      5-min Rain = 0
KHRS 261015Z 12004KT 14/14 A2999 RMK A01 T01420137  RH  098%=      5-min Rain = 0
KHRS 261020Z 12004KT 14/14 A30 RMK A01 T01430138  RH  099%=      5-min Rain = 0
KHRS 261025Z 11004KT 14/14 A30 RMK A01 T01440139  RH  099%=      5-min Rain = 0
KHRS 261030Z 11004KT 14/14 A30 RMK A01 T01430138  RH  099%=      5-min Rain = 0
KHRS 261035Z 11004KT 14/14 A30 RMK A01 T01440139  RH  099%=      5-min Rain = 0
KHRS 261040Z 11004KT 15/14 A30 RMK A01 T01450140  RH  099%=      5-min Rain = 0
KHRS 261045Z 10004KT 15/14 A30 RMK A01 T01450141  RH  099%=      5-min Rain = 0
KHRS 261050Z 10004KT 15/14 A30 RMK A01 T01460141  RH  099%=      5-min Rain = 0
KHRS 261055Z 11004KT 15/14 A30 RMK A01 T01460142  RH  099%=      5-min Rain = 0
KHRS 261100Z 11005KT 15/15 A30 RMK A01 T01490145  RH  099%=      5-min Rain = 0
KHRS 261105Z 11005KT 15/15 A30 RMK A01 T01530149  RH  100%=      5-min Rain = 0
KHRS 261110Z 11006KT 16/15 A30 RMK A01 T01570153  RH  100%=      5-min Rain = 0
KHRS 261115Z 12006KT 16/16 A30 RMK A01 T01590155  RH  100%=      5-min Rain = 0
KHRS 261120Z 12006KT 16/16 A30 RMK A01 T01600156  RH  100%=      5-min Rain = 0
KHRS 261125Z 12006KT 16/16 A30 RMK A01 T01610157  RH  100%=      5-min Rain = 0
KHRS 261130Z 12005KT 16/16 A30 RMK A01 T01620158  RH  100%=      5-min Rain = 0
KHRS 261135Z 13005KT 16/16 A30 RMK A01 T01620158  RH  100%=      5-min Rain = 0
KHRS 261140Z 13005KT 16/16 A30 RMK A01 T01630159  RH  100%=      5-min Rain = 0
KHRS 261145Z 13006KT 17/16 A3001 RMK A01 T01650161  RH  100%=      5-min Rain = 0
KHRS 261150Z 14008KT 17/16 A3001 RMK A01 T01680164  RH  100%=      5-min Rain = 0
KHRS 261155Z 14008KT 17/17 A30 RMK A01 T01690166  RH  100%=      5-min Rain = 0
KHRS 261200Z 14007KT 17/17 A3001 RMK A01 T01710167  RH  100%=      5-min Rain = 0
KHRS 261205Z 14007KT 17/17 A3001 RMK A01 T01720168  RH  100%=      5-min Rain = 0
KHRS 261210Z 14008KT 17/17 A3001 RMK A01 T01730170  RH  100%=      5-min Rain = 0
KHRS 261215Z 14008KT 17/17 A3001 RMK A01 T01740171  RH  100%=      5-min Rain = 0
KHRS 261220Z 14008KT 18/17 A3001 RMK A01 T01750172  RH  100%=      5-min Rain = 0
KHRS 261225Z 15006KT 18/17 A3001 RMK A01 T01760173  RH  100%=      5-min Rain = 0
KHRS 261230Z 15007KT 18/17 A3001 RMK A01 T01770174  RH  100%=      5-min Rain = 0
KHRS 261235Z 15007KT 18/17 A3001 RMK A01 T01780174  RH  100%=      5-min Rain = 0
KHRS 261240Z 15007KT 18/18 A3001 RMK A01 T01790175  RH  100%=      5-min Rain = 0
KHRS 261245Z 14008KT 18/18 A3001 RMK A01 T01790176  RH  100%=      5-min Rain = 0
KHRS 261250Z 14008KT 18/18 A3001 RMK A01 T01800176  RH  100%=      5-min Rain = 0
KHRS 261255Z 15007KT 18/18 A3001 RMK A01 T01800176  RH  100%=      5-min Rain = 0
KHRS 261300Z 15007KT 18/18 A3001 RMK A01 T01810177  RH  100%=      5-min Rain = 0
KHRS 261305Z 15007G12KT 18/18 A3001 RMK A01 T01810177  RH  100%=      5-min Rain = 0
KHRS 261310Z 15008KT 18/18 A3001 RMK A01 T01820178  RH  100%=      5-min Rain = 0
KHRS 261315Z 14008KT 18/18 A3001 RMK A01 T01820178  RH  100%=      5-min Rain = 0
KHRS 261320Z 15009KT 18/18 A3001 RMK A01 T01830179  RH  100%=      5-min Rain = 0
KHRS 261325Z 15009KT 18/18 A3002 RMK A01 T01840180  RH  100%=      5-min Rain = 0
KHRS 261330Z 15007KT 19/18 A3002 RMK A01 T01850180  RH  100%=      5-min Rain = 0
KHRS 261335Z 15008KT 19/18 A3002 RMK A01 T01850181  RH  100%=      5-min Rain = 0
KHRS 261340Z 15007G12KT 19/18 A3002 RMK A01 T01860182  RH  100%=      5-min Rain = 0
KHRS 261345Z 15008KT 19/18 A3002 RMK A01 T01860182  RH  100%=      5-min Rain = 0
KHRS 261350Z 15009KT 19/18 A3002 RMK A01 T01870183  RH  100%=      5-min Rain = 0
KHRS 261355Z 15009KT 19/18 A3002 RMK A01 T01880183  RH  100%=      5-min Rain = 0
KHRS 261400Z 15009G14KT 19/18 A3002 RMK A01 T01890184  RH  100%=      5-min Rain = 0
KHRS 261405Z 15008KT 19/18 A3002 RMK A01 T01890184  RH  100%=      5-min Rain = 0
KHRS 261410Z 15009G14KT 19/19 A3003 RMK A01 T01900185  RH  100%=      5-min Rain = 0
KHRS 261415Z 15010KT 19/19 A3003 RMK A01 T01900185  RH  100%=      5-min Rain = 0
KHRS 261420Z 15009G14KT 19/19 A3003 RMK A01 T01900185  RH  099%=      5-min Rain = 0
KHRS 261425Z 15009G14KT 19/19 A3003 RMK A01 T01900185  RH  099%=      5-min Rain = 0
KHRS 261430Z 15010G15KT 19/19 A3003 RMK A01 T01900185  RH  099%=      5-min Rain = 0
KHRS 261435Z 15008KT 19/19 A3003 RMK A01 T01900185  RH  099%=      5-min Rain = 0
KHRS 261440Z 15009KT 19/19 A3003 RMK A01 T01910185  RH  099%=      5-min Rain = 0
KHRS 261445Z 15010KT 19/19 A3003 RMK A01 T01910185  RH  099%=      5-min Rain = 0
KHRS 261450Z 15009G14KT 19/19 A3004 RMK A01 T01910186  RH  099%=      5-min Rain = 0
KHRS 261455Z 15010KT 19/19 A3004 RMK A01 T01920186  RH  099%=      5-min Rain = 0
KHRS 261500Z 14011G17KT 19/19 A3003 RMK A01 T01920186  RH  099%=      5-min Rain = 0
KHRS 261505Z 15011KT 19/19 A3003 RMK A01 T01920186  RH  099%=      5-min Rain = 0
KHRS 261510Z 15011G16KT 19/19 A3004 RMK A01 T01920186  RH  099%=      5-min Rain = 0
KHRS 261515Z 15010G15KT 19/19 A3003 RMK A01 T01930186  RH  099%=      5-min Rain = 0
KHRS 261520Z 15010KT 19/19 A3003 RMK A01 T01930187  RH  099%=      5-min Rain = 0
KHRS 261525Z 15009G14KT 19/19 A3003 RMK A01 T01940187  RH  098%=      5-min Rain = 0
KHRS 261530Z 15009G14KT 19/19 A3002 RMK A01 T01940187  RH  098%=      5-min Rain = 0
KHRS 261535Z 15009G14KT 19/19 A3003 RMK A01 T01940187  RH  098%=      5-min Rain = 0
KHRS 261540Z 15010KT 19/19 A3002 RMK A01 T01940187  RH  098%=      5-min Rain = 0
KHRS 261545Z 15009KT 20/19 A3002 RMK A01 T01960188  RH  098%=      5-min Rain = 0
KHRS 261550Z 15010G16KT 20/19 A3002 RMK A01 T01960188  RH  098%=      5-min Rain = 0
KHRS 261555Z 15009KT 20/19 A3002 RMK A01 T01970189  RH  097%=      5-min Rain = 0
KHRS 261600Z 15010KT 20/19 A3002 RMK A01 T01970188  RH  097%=      5-min Rain = 0
KHRS 261605Z 15010G16KT 20/19 A3002 RMK A01 T01980190  RH  097%=      5-min Rain = 0
KHRS 261610Z 15011G16KT 20/19 A3002 RMK A01 T01980189  RH  097%=      5-min Rain = 0
KHRS 261615Z 16012G17KT 20/19 A3002 RMK A01 T01980188  RH  096%=      5-min Rain = 0
KHRS 261620Z 16011G16KT 20/19 A3002 RMK A01 T01990189  RH  096%=      5-min Rain = 0
KHRS 261625Z 16011KT 20/19 A3002 RMK A01 T02000189  RH  096%=      5-min Rain = 0
KHRS 261630Z 16011G17KT 20/19 A3002 RMK A01 T02000188  RH  095%=      5-min Rain = 0
KHRS 261635Z 16010G15KT 20/19 A3002 RMK A01 T02010188  RH  095%=      5-min Rain = 0
KHRS 261640Z 16011G17KT 20/19 A3002 RMK A01 T02000188  RH  095%=      5-min Rain = 0
KHRS 261645Z 16011G16KT 20/19 A3002 RMK A01 T02020189  RH  095%=      5-min Rain = 0
KHRS 261650Z 16012G17KT 20/19 A3002 RMK A01 T02020189  RH  094%=      5-min Rain = 0
KHRS 261655Z 16011G16KT 20/19 A3002 RMK A01 T02030189  RH  094%=      5-min Rain = 0
KHRS 261700Z 16012KT 20/19 A3002 RMK A01 T02040189  RH  093%=      5-min Rain = 0
KHRS 261705Z 16012G18KT 20/19 A3002 RMK A01 T02040188  RH  093%=      5-min Rain = 0
KHRS 261710Z 16013G18KT 21/19 A3001 RMK A01 T02050188  RH  092%=      5-min Rain = 0
KHRS 261715Z 16012G18KT 21/19 A3001 RMK A01 T02060188  RH  092%=      5-min Rain = 0
KHRS 261720Z 16010G16KT 21/19 A3001 RMK A01 T02090191  RH  092%=      5-min Rain = 0
KHRS 261725Z 16013G18KT 21/19 A3002 RMK A01 T02100189  RH  090%=      5-min Rain = 0
KHRS 261730Z 16012G18KT 21/19 A3002 RMK A01 T02090189  RH  090%=      5-min Rain = 0
KHRS 261735Z 17011KT 21/19 A3002 RMK A01 T02090188  RH  090%=      5-min Rain = 0
KHRS 261740Z 17010G15KT 21/19 A3002 RMK A01 T02090189  RH  091%=      5-min Rain = 0
KHRS 261745Z 16010G15KT 21/19 A3001 RMK A01 T02090189  RH  091%=      5-min Rain = 0
KHRS 261750Z 16011G17KT 21/19 A3001 RMK A01 T02090190  RH  091%=      5-min Rain = 0
KHRS 261755Z 16012G17KT 21/19 A3001 RMK A01 T02100189  RH  090%=      5-min Rain = 0
KHRS 261800Z 16012G17KT 21/19 A3001 RMK A01 T02110191  RH  091%=      5-min Rain = 0
KHRS 261805Z 16013G18KT 21/19 A30 RMK A01 T02110190  RH  090%=      5-min Rain = 0
KHRS 261810Z 16012G18KT 21/19 A30 RMK A01 T02110189  RH  090%=      5-min Rain = 0
KHRS 261815Z 15011G16KT 21/19 A30 RMK A01 T02120190  RH  090%=      5-min Rain = 0
KHRS 261820Z 16010G17KT 21/19 A30 RMK A01 T02120190  RH  089%=      5-min Rain = 0
KHRS 261825Z 16011KT 21/19 A30 RMK A01 T02120191  RH  090%=      5-min Rain = 0
KHRS 261830Z 14013KT 21/19 A30 RMK A01 T02120191  RH  090%=      5-min Rain = 0
KHRS 261835Z 14013G18KT 21/19 A30 RMK A01 T02090191  RH  092%=      5-min Rain = 0
KHRS 261840Z 14014KT 21/19 A3001 RMK A01 T02060190  RH  093%=      5-min Rain = 0
KHRS 261845Z 15011G16KT 21/19 A3001 RMK A01 T02050190  RH  094%=      5-min Rain = 0
KHRS 261850Z 16012G17KT 21/19 A3002 RMK A01 T02050190  RH  094%=      5-min Rain = 0
KHRS 261855Z 16012G17KT 20/19 A3003 RMK A01 T02040190  RH  094%=      5-min Rain = 0
KHRS 261900Z 17009KT 20/19 A3003 RMK A01 T02040190  RH  094%=      5-min Rain = 0
KHRS 261905Z 16010G15KT 21/19 A3003 RMK A01 T02050191  RH  094%=      5-min Rain = 0
KHRS 261910Z 17009G16KT 21/19 A3002 RMK A01 T02060192  RH  094%=      5-min Rain = 0
KHRS 261915Z 17010G16KT 21/19 A3002 RMK A01 T02070192  RH  094%=      5-min Rain = 0
KHRS 261920Z 17009KT 21/19 A3002 RMK A01 T02070193  RH  094%=      5-min Rain = 0
KHRS 261925Z 17008G14KT 21/19 A3002 RMK A01 T02080194  RH  094%=      5-min Rain = 0
KHRS 261930Z 16010KT 21/19 A3001 RMK A01 T02100194  RH  093%=      5-min Rain = 0
KHRS 261935Z 16011KT 21/20 A30 RMK A01 T02110195  RH  093%=      5-min Rain = 0
KHRS 261940Z 15010G16KT 21/20 A2999 RMK A01 T02130195  RH  092%=      5-min Rain = 0
KHRS 261945Z 14013G19KT 21/20 A2999 RMK A01 T02130195  RH  092%=      5-min Rain = 0
KHRS 261950Z 14014G21KT 21/19 A30 RMK A01 T02110193  RH  092%=      5-min Rain = 0
KHRS 261955Z 15013G21KT 21/19 A3001 RMK A01 T02090192  RH  092%=      5-min Rain = 0
KHRS 262000Z 16013G18KT 21/19 A3001 RMK A01 T02070190  RH  092%=      5-min Rain = 0
KHRS 262005Z 16012KT 21/19 A3001 RMK A01 T02060190  RH  093%=      5-min Rain = 0
KHRS 262010Z 16010KT 21/19 A2999 RMK A01 T02050190  RH  094%=      5-min Rain = 0
KHRS 262015Z 15011KT 21/19 A2999 RMK A01 T02050191  RH  094%=      5-min Rain = 0
KHRS 262020Z 15012G19KT 21/19 A2999 RMK A01 T02050192  RH  095%=      5-min Rain = 0
KHRS 262025Z 16013G19KT 21/19 A2999 RMK A01 T02060192  RH  094%=      5-min Rain = 0
KHRS 262030Z 14014G19KT 21/19 A2997 RMK A01 T02070190  RH  092%=      5-min Rain = 0
KHRS 262035Z 14012KT 21/19 A2997 RMK A01 T02080190  RH  092%=      5-min Rain = 0
KHRS 262040Z 14014KT 21/19 A2997 RMK A01 T02080191  RH  093%=      5-min Rain = 0
KHRS 262045Z 14014G19KT 21/19 A2996 RMK A01 T02080190  RH  092%=      5-min Rain = 0
KHRS 262050Z 15013G18KT 21/19 A2997 RMK A01 T02090190  RH  091%=      5-min Rain = 0
KHRS 262055Z 15012G17KT 21/19 A2997 RMK A01 T02100191  RH  091%=      5-min Rain = 0
KHRS 262100Z 15012G19KT 21/19 A2996 RMK A01 T02100190  RH  091%=      5-min Rain = 0
KHRS 262105Z 15010KT 21/19 A2995 RMK A01 T02100190  RH  091%=      5-min Rain = 0
KHRS 262110Z 14013G19KT 21/19 A2995 RMK A01 T02100190  RH  091%=      5-min Rain = 0
KHRS 262115Z 15013G19KT 21/19 A2996 RMK A01 T02100191  RH  091%=      5-min Rain = 0
KHRS 262120Z 14015G20KT 21/19 A2994 RMK A01 T02100190  RH  091%=      5-min Rain = 0
KHRS 262125Z 14015G22KT 21/19 A2993 RMK A01 T02100190  RH  091%=      5-min Rain = 0
KHRS 262130Z 14016G21KT 21/19 A2994 RMK A01 T02100190  RH  090%=      5-min Rain = 0
KHRS 262135Z 13017G22KT 21/19 A2993 RMK A01 T02110190  RH  090%=      5-min Rain = 0
KHRS 262140Z 13017KT 21/19 A2992 RMK A01 T02110190  RH  090%=      5-min Rain = 0
KHRS 262145Z 14018G23KT 21/19 A2993 RMK A01 T02100189  RH  090%=      5-min Rain = 0
KHRS 262150Z 14021KT 21/19 A2993 RMK A01 T02100189  RH  090%=      5-min Rain = 0
KHRS 262155Z 13019G24KT 21/19 A2991 RMK A01 T02120192  RH  091%=      5-min Rain = 0
KHRS 262200Z 13019G24KT 21/19 A2991 RMK A01 T02140192  RH  090%=      5-min Rain = 0
KHRS 262205Z 14020G26KT 21/19 A2991 RMK A01 T02130191  RH  090%=      5-min Rain = 0
KHRS 262210Z 14021G26KT 21/19 A2991 RMK A01 T02120190  RH  090%=      5-min Rain = 0
KHRS 262215Z 14020G28KT 21/19 A2991 RMK A01 T02110190  RH  090%=      5-min Rain = 0
KHRS 262220Z 14024G33KT 21/19 A299 RMK A01 T02110189  RH  090%=      5-min Rain = 0
KHRS 262225Z 13027G32KT 21/19 A2989 RMK A01 T02110190  RH  090%=      5-min Rain = 0
KHRS 262230Z 13024G29KT 22/19 A2987 RMK A01 T02160194  RH  090%=      5-min Rain = 0
KHRS 262235Z 13023G29KT 22/20 A2988 RMK A01 T02220197  RH  088%=      5-min Rain = 0
KHRS 262240Z 13022G27KT 23/20 A2988 RMK A01 T02250198  RH  087%=      5-min Rain = 0
KHRS 262245Z 14022G27KT 23/20 A2989 RMK A01 T02270197  RH  086%=      5-min Rain = 0
KHRS 262250Z 14022G27KT 22/20 A2989 RMK A01 T02240196  RH  086%=      5-min Rain = 0
KHRS 262255Z 14024G29KT 22/19 A2991 RMK A01 T02210194  RH  087%=      5-min Rain = 0
KHRS 262300Z 14023G28KT 22/19 A299 RMK A01 T02190193  RH  088%=      5-min Rain = 0
KHRS 262305Z 15017G26KT 22/19 A299 RMK A01 T02200194  RH  088%=      5-min Rain = 0
KHRS 262310Z 15017G24KT 22/19 A2991 RMK A01 T02210194  RH  087%=      5-min Rain = 0
KHRS 262315Z 15018G28KT 22/19 A2991 RMK A01 T02200193  RH  087%=      5-min Rain = 0
KHRS 262320Z 15018G25KT 22/19 A2991 RMK A01 T02180193  RH  088%=      5-min Rain = 0
KHRS 262325Z 15017G27KT 22/19 A2991 RMK A01 T02180193  RH  088%=      5-min Rain = 0
KHRS 262330Z 15018G27KT 22/19 A2991 RMK A01 T02190194  RH  088%=      5-min Rain = 0
KHRS 262335Z 15017G25KT 22/20 A299 RMK A01 T02230196  RH  087%=      5-min Rain = 0
KHRS 262340Z 15017G23KT 23/20 A299 RMK A01 T02260195  RH  085%=      5-min Rain = 0
KHRS 262345Z 15018G26KT 23/20 A2989 RMK A01 T02260195  RH  085%=      5-min Rain = 0
KHRS 262350Z 15019G25KT 22/19 A2989 RMK A01 T02240194  RH  085%=      5-min Rain = 0
KHRS 262355Z 15018G25KT 23/20 A2988 RMK A01 T02250195  RH  085%=      5-min Rain = 0
KHRS 270000Z 15020G26KT 23/19 A2988 RMK A01 T02250194  RH  085%=      5-min Rain = 0
KHRS 270005Z 15017G23KT 22/19 A2988 RMK A01 T02210194  RH  087%=      5-min Rain = 0
KHRS 270010Z 15017G24KT 22/20 A2987 RMK A01 T02220195  RH  087%=      5-min Rain = 0
KHRS 270015Z 15019G28KT 22/19 A2987 RMK A01 T02210194  RH  087%=      5-min Rain = 0
KHRS 270020Z 15019G25KT 22/19 A2986 RMK A01 T02200193  RH  087%=      5-min Rain = 0
KHRS 270025Z 14020G26KT 22/19 A2985 RMK A01 T02190193  RH  088%=      5-min Rain = 0
KHRS 270030Z 14021G31KT 22/19 A2984 RMK A01 T02180193  RH  088%=      5-min Rain = 0
KHRS 270035Z 14022G29KT 22/19 A2983 RMK A01 T02160191  RH  088%=      5-min Rain = 0
KHRS 270040Z 14020G28KT 22/19 A2983 RMK A01 T02150191  RH  088%=      5-min Rain = 0
KHRS 270045Z 14020G30KT 21/19 A2984 RMK A01 T02140190  RH  088%=      5-min Rain = 0
KHRS 270050Z 14018G25KT 21/19 A2984 RMK A01 T02140189  RH  088%=      5-min Rain = 0
KHRS 270055Z 15015G23KT 21/19 A2985 RMK A01 T02140189  RH  088%=      5-min Rain = 0
KHRS 270100Z 15013G19KT 21/19 A2987 RMK A01 T02140189  RH  088%=      5-min Rain = 0
KHRS 270105Z 15013G18KT 22/19 A2987 RMK A01 T02150189  RH  088%=      5-min Rain = 0
KHRS 270110Z 16015G22KT 22/19 A2987 RMK A01 T02150188  RH  087%=      5-min Rain = 0
KHRS 270115Z 15012KT 22/19 A2988 RMK A01 T02150188  RH  087%=      5-min Rain = 0
KHRS 270120Z 15012G17KT 21/19 A2988 RMK A01 T02140189  RH  088%=      5-min Rain = 0
KHRS 270125Z 14013KT 21/19 A2988 RMK A01 T02130191  RH  090%=      5-min Rain = 0
KHRS 270130Z 14014G19KT 21/19 A2987 RMK A01 T02110192  RH  091%=      5-min Rain = 0
KHRS 270135Z 14015KT 21/19 A2987 RMK A01 T02100191  RH  091%=      5-min Rain = 0
KHRS 270140Z 14012G20KT 21/19 A2987 RMK A01 T02100191  RH  091%=      5-min Rain = 0
KHRS 270145Z 15011G17KT 21/19 A2988 RMK A01 T02090190  RH  091%=      5-min Rain = 0
KHRS 270150Z 15010G16KT 21/19 A2988 RMK A01 T02100189  RH  090%=      5-min Rain = 0
KHRS 270155Z 16010G16KT 21/19 A299 RMK A01 T02100189  RH  090%=      5-min Rain = 0
KHRS 270200Z 17008G15KT 21/19 A299 RMK A01 T02110188  RH  089%=      5-min Rain = 0
KHRS 270205Z 16011G17KT 21/19 A299 RMK A01 T02110187  RH  089%=      5-min Rain = 0
KHRS 270210Z 17009KT 21/19 A2991 RMK A01 T02110186  RH  088%=      5-min Rain = 0
KHRS 270215Z 17006KT 21/19 A2991 RMK A01 T02110186  RH  088%=      5-min Rain = 0
KHRS 270220Z 14010G17KT 21/19 A2989 RMK A01 T02090185  RH  088%=      5-min Rain = 0
KHRS 270225Z 15008G15KT 21/18 A299 RMK A01 T02080184  RH  088%=      5-min Rain = 0
KHRS 270230Z 14009G14KT 21/18 A299 RMK A01 T02090184  RH  088%=      5-min Rain = 0
KHRS 270235Z 14010KT 21/18 A2991 RMK A01 T02090184  RH  088%=      5-min Rain = 0
KHRS 270240Z 16010G15KT 21/18 A2993 RMK A01 T02090184  RH  087%=      5-min Rain = 0
KHRS 270245Z 15006KT 21/18 A2992 RMK A01 T02090183  RH  087%=      5-min Rain = 0
KHRS 270250Z 15008G15KT 21/18 A2992 RMK A01 T02080183  RH  088%=      5-min Rain = 0
KHRS 270255Z 14010G16KT 21/18 A2992 RMK A01 T02070183  RH  088%=      5-min Rain = 0
KHRS 270300Z 13009KT 21/18 A2992 RMK A01 T02070183  RH  088%=      5-min Rain = 0
KHRS 270305Z 12013KT 21/18 A2989 RMK A01 T02060182  RH  089%=      5-min Rain = 0
KHRS 270310Z 12013KT 21/18 A2989 RMK A01 T02050182  RH  089%=      5-min Rain = 0
KHRS 270315Z 12012G19KT 21/18 A299 RMK A01 T02050182  RH  089%=      5-min Rain = 0
KHRS 270320Z 12012KT 21/18 A299 RMK A01 T02050182  RH  089%=      5-min Rain = 0
KHRS 270325Z 11010KT 20/18 A2991 RMK A01 T02040182  RH  090%=      5-min Rain = 0.01
KHRS 270330Z 11007KT 20/18 A299 RMK A01 T02020182  RH  091%=      5-min Rain = 0.01
KHRS 270335Z 09005KT 20/18 A299 RMK A01 T02000182  RH  092%=      5-min Rain = 0.02
KHRS 270340Z 04008KT 20/18 A2989 RMK A01 T01990182  RH  093%=      5-min Rain = 0
KHRS 270345Z 04010KT 20/18 A2989 RMK A01 T01990183  RH  093%=      5-min Rain = 0
KHRS 270350Z 11006KT 20/18 A2992 RMK A01 T01990183  RH  093%=      5-min Rain = 0
KHRS 270355Z 23006KT 20/18 A2994 RMK A01 T01980183  RH  093%=      5-min Rain = 0
KHRS 270400Z 26003KT 20/18 A2994 RMK A01 T01980183  RH  093%=      5-min Rain = 0
KHRS 270405Z 26001KT 20/18 A2993 RMK A01 T01980183  RH  093%=      5-min Rain = 0
KHRS 270410Z 09001G6KT 20/18 A2993 RMK A01 T01980183  RH  093%=      5-min Rain = 0
KHRS 270415Z 13004KT 20/18 A2992 RMK A01 T01980182  RH  093%=      5-min Rain = 0
KHRS 270420Z 14004KT 20/18 A2992 RMK A01 T01970181  RH  093%=      5-min Rain = 0
KHRS 270425Z 15007KT 20/18 A2992 RMK A01 T01960180  RH  093%=      5-min Rain = 0
KHRS 270430Z 16009G16KT 20/18 A2992 RMK A01 T01970180  RH  093%=      5-min Rain = 0
KHRS 270435Z 16009G14KT 20/18 A2991 RMK A01 T01970180  RH  092%=      5-min Rain = 0
KHRS 270440Z 16007KT 20/18 A2991 RMK A01 T01960179  RH  092%=      5-min Rain = 0
KHRS 270445Z 16008G14KT 20/18 A2991 RMK A01 T01960179  RH  092%=      5-min Rain = 0
KHRS 270450Z 16008KT 20/18 A2991 RMK A01 T01950178  RH  092%=      5-min Rain = 0
KHRS 270455Z 17007G12KT 20/18 A2991 RMK A01 T01950178  RH  092%=      5-min Rain = 0

Page generated in 0.0091 seconds.